sensor_id;sensor_type;location;lat;lon;timestamp;P1;durP1;ratioP1;P2;durP2;ratioP2
72926;SDS011;61071;51.618;19.388;2023-05-08T00:00:24;22.38;;;13.77;;
72926;SDS011;61071;51.618;19.388;2023-05-08T00:02:50;21.75;;;13.07;;
72926;SDS011;61071;51.618;19.388;2023-05-08T00:05:16;23.30;;;14.38;;
72926;SDS011;61071;51.618;19.388;2023-05-08T00:07:41;22.42;;;13.25;;
72926;SDS011;61071;51.618;19.388;2023-05-08T00:10:08;20.73;;;12.25;;
72926;SDS011;61071;51.618;19.388;2023-05-08T00:12:35;17.42;;;10.63;;
72926;SDS011;61071;51.618;19.388;2023-05-08T00:15:01;19.38;;;10.75;;
72926;SDS011;61071;51.618;19.388;2023-05-08T00:17:28;15.52;;;9.50;;
72926;SDS011;61071;51.618;19.388;2023-05-08T00:19:54;12.43;;;8.63;;
72926;SDS011;61071;51.618;19.388;2023-05-08T00:22:20;12.05;;;8.48;;
72926;SDS011;61071;51.618;19.388;2023-05-08T00:24:46;14.13;;;8.27;;
72926;SDS011;61071;51.618;19.388;2023-05-08T00:27:11;13.23;;;8.18;;
72926;SDS011;61071;51.618;19.388;2023-05-08T00:29:37;11.95;;;8.05;;
72926;SDS011;61071;51.618;19.388;2023-05-08T00:32:06;11.07;;;7.53;;
72926;SDS011;61071;51.618;19.388;2023-05-08T00:34:32;13.65;;;8.60;;
72926;SDS011;61071;51.618;19.388;2023-05-08T00:36:58;11.55;;;7.65;;
72926;SDS011;61071;51.618;19.388;2023-05-08T00:39:24;12.10;;;7.70;;
72926;SDS011;61071;51.618;19.388;2023-05-08T00:41:49;9.65;;;6.50;;
72926;SDS011;61071;51.618;19.388;2023-05-08T00:44:15;16.10;;;6.95;;
72926;SDS011;61071;51.618;19.388;2023-05-08T00:46:42;11.07;;;7.50;;
72926;SDS011;61071;51.618;19.388;2023-05-08T00:49:09;9.95;;;6.95;;
72926;SDS011;61071;51.618;19.388;2023-05-08T00:51:38;12.30;;;7.28;;
72926;SDS011;61071;51.618;19.388;2023-05-08T00:54:07;12.43;;;7.82;;
72926;SDS011;61071;51.618;19.388;2023-05-08T00:56:33;17.23;;;8.68;;
72926;SDS011;61071;51.618;19.388;2023-05-08T00:59:02;15.07;;;9.65;;
72926;SDS011;61071;51.618;19.388;2023-05-08T01:01:33;14.45;;;8.23;;
72926;SDS011;61071;51.618;19.388;2023-05-08T01:04:02;12.20;;;8.18;;
72926;SDS011;61071;51.618;19.388;2023-05-08T01:06:29;15.23;;;9.73;;
72926;SDS011;61071;51.618;19.388;2023-05-08T01:08:55;14.13;;;9.35;;
72926;SDS011;61071;51.618;19.388;2023-05-08T01:11:25;12.95;;;8.13;;
72926;SDS011;61071;51.618;19.388;2023-05-08T01:14:20;16.58;;;9.95;;
72926;SDS011;61071;51.618;19.388;2023-05-08T01:25:29;14.43;;;8.60;;
72926;SDS011;61071;51.618;19.388;2023-05-08T01:34:05;18.27;;;10.70;;
72926;SDS011;61071;51.618;19.388;2023-05-08T01:36:38;17.27;;;11.52;;
72926;SDS011;61071;51.618;19.388;2023-05-08T01:39:25;18.92;;;10.85;;
72926;SDS011;61071;51.618;19.388;2023-05-08T01:45:13;14.65;;;9.48;;
72926;SDS011;61071;51.618;19.388;2023-05-08T01:47:49;21.05;;;10.85;;
72926;SDS011;61071;51.618;19.388;2023-05-08T01:50:34;17.60;;;10.75;;
72926;SDS011;61071;51.618;19.388;2023-05-08T01:53:12;21.83;;;11.90;;
72926;SDS011;61071;51.618;19.388;2023-05-08T01:55:49;23.08;;;12.43;;
72926;SDS011;61071;51.618;19.388;2023-05-08T01:58:20;21.10;;;12.32;;
72926;SDS011;61071;51.618;19.388;2023-05-08T02:00:48;22.45;;;11.95;;
72926;SDS011;61071;51.618;19.388;2023-05-08T02:03:15;24.67;;;13.18;;
72926;SDS011;61071;51.618;19.388;2023-05-08T02:05:45;16.98;;;10.77;;
72926;SDS011;61071;51.618;19.388;2023-05-08T02:08:16;12.82;;;8.65;;
72926;SDS011;61071;51.618;19.388;2023-05-08T02:10:45;21.20;;;12.30;;
72926;SDS011;61071;51.618;19.388;2023-05-08T02:13:14;22.15;;;12.65;;
72926;SDS011;61071;51.618;19.388;2023-05-08T02:15:44;19.90;;;11.90;;
72926;SDS011;61071;51.618;19.388;2023-05-08T02:18:15;24.70;;;13.10;;
72926;SDS011;61071;51.618;19.388;2023-05-08T02:20:47;21.65;;;12.13;;
72926;SDS011;61071;51.618;19.388;2023-05-08T02:23:16;26.10;;;13.90;;
72926;SDS011;61071;51.618;19.388;2023-05-08T02:25:44;26.27;;;14.45;;
72926;SDS011;61071;51.618;19.388;2023-05-08T02:28:11;27.35;;;14.73;;
72926;SDS011;61071;51.618;19.388;2023-05-08T02:30:40;23.60;;;13.05;;
72926;SDS011;61071;51.618;19.388;2023-05-08T02:33:08;21.23;;;12.45;;
72926;SDS011;61071;51.618;19.388;2023-05-08T02:35:37;19.45;;;12.15;;
72926;SDS011;61071;51.618;19.388;2023-05-08T02:38:05;15.52;;;11.15;;
72926;SDS011;61071;51.618;19.388;2023-05-08T02:40:35;18.92;;;11.00;;
72926;SDS011;61071;51.618;19.388;2023-05-08T02:43:06;17.02;;;11.43;;
72926;SDS011;61071;51.618;19.388;2023-05-08T02:45:35;17.13;;;11.10;;
72926;SDS011;61071;51.618;19.388;2023-05-08T02:48:12;24.20;;;13.18;;
72926;SDS011;61071;51.618;19.388;2023-05-08T02:54:13;21.00;;;13.30;;
72926;SDS011;61071;51.618;19.388;2023-05-08T02:56:54;20.05;;;11.68;;
72926;SDS011;61071;51.618;19.388;2023-05-08T02:59:43;24.50;;;14.50;;
72926;SDS011;61071;51.618;19.388;2023-05-08T03:05:23;23.95;;;14.30;;
72926;SDS011;61071;51.618;19.388;2023-05-08T03:07:54;28.75;;;15.32;;
72926;SDS011;61071;51.618;19.388;2023-05-08T03:10:35;51.60;;;25.50;;
72926;SDS011;61071;51.618;19.388;2023-05-08T03:13:03;30.25;;;15.52;;
72926;SDS011;61071;51.618;19.388;2023-05-08T03:15:43;22.52;;;13.70;;
72926;SDS011;61071;51.618;19.388;2023-05-08T03:18:20;20.55;;;11.95;;
72926;SDS011;61071;51.618;19.388;2023-05-08T03:21:09;20.05;;;12.23;;
72926;SDS011;61071;51.618;19.388;2023-05-08T03:23:37;57.13;;;24.98;;
72926;SDS011;61071;51.618;19.388;2023-05-08T03:26:06;73.50;;;37.25;;
72926;SDS011;61071;51.618;19.388;2023-05-08T03:28:34;39.20;;;21.85;;
72926;SDS011;61071;51.618;19.388;2023-05-08T03:31:01;24.80;;;16.67;;
72926;SDS011;61071;51.618;19.388;2023-05-08T03:33:30;26.67;;;12.82;;
72926;SDS011;61071;51.618;19.388;2023-05-08T03:35:58;13.75;;;9.35;;
72926;SDS011;61071;51.618;19.388;2023-05-08T03:38:23;15.77;;;8.90;;
72926;SDS011;61071;51.618;19.388;2023-05-08T03:40:50;14.85;;;8.52;;
72926;SDS011;61071;51.618;19.388;2023-05-08T03:43:15;11.80;;;7.40;;
72926;SDS011;61071;51.618;19.388;2023-05-08T03:45:44;11.00;;;7.40;;
72926;SDS011;61071;51.618;19.388;2023-05-08T03:48:11;10.65;;;7.07;;
72926;SDS011;61071;51.618;19.388;2023-05-08T03:50:39;11.10;;;7.00;;
72926;SDS011;61071;51.618;19.388;2023-05-08T03:53:05;11.10;;;6.78;;
72926;SDS011;61071;51.618;19.388;2023-05-08T03:55:31;8.27;;;6.10;;
72926;SDS011;61071;51.618;19.388;2023-05-08T04:03:22;8.52;;;6.03;;
72926;SDS011;61071;51.618;19.388;2023-05-08T04:06:07;7.78;;;5.65;;
72926;SDS011;61071;51.618;19.388;2023-05-08T04:09:15;9.38;;;6.75;;
72926;SDS011;61071;51.618;19.388;2023-05-08T04:14:57;7.47;;;5.57;;
72926;SDS011;61071;51.618;19.388;2023-05-08T04:20:18;11.80;;;6.85;;
72926;SDS011;61071;51.618;19.388;2023-05-08T04:22:46;13.65;;;7.45;;
72926;SDS011;61071;51.618;19.388;2023-05-08T04:25:16;12.85;;;7.53;;
72926;SDS011;61071;51.618;19.388;2023-05-08T04:27:44;12.10;;;7.20;;
72926;SDS011;61071;51.618;19.388;2023-05-08T04:30:11;14.13;;;7.10;;
72926;SDS011;61071;51.618;19.388;2023-05-08T04:32:38;11.18;;;7.03;;
72926;SDS011;61071;51.618;19.388;2023-05-08T04:35:07;9.32;;;5.75;;
72926;SDS011;61071;51.618;19.388;2023-05-08T04:37:33;8.60;;;5.75;;
72926;SDS011;61071;51.618;19.388;2023-05-08T04:39:59;7.53;;;5.70;;
72926;SDS011;61071;51.618;19.388;2023-05-08T04:42:26;8.98;;;5.60;;
72926;SDS011;61071;51.618;19.388;2023-05-08T04:44:52;9.48;;;6.22;;
72926;SDS011;61071;51.618;19.388;2023-05-08T04:47:19;10.02;;;6.45;;
72926;SDS011;61071;51.618;19.388;2023-05-08T04:49:45;8.68;;;6.13;;
72926;SDS011;61071;51.618;19.388;2023-05-08T04:52:11;8.18;;;6.22;;
72926;SDS011;61071;51.618;19.388;2023-05-08T04:54:37;12.38;;;5.97;;
72926;SDS011;61071;51.618;19.388;2023-05-08T04:57:03;10.35;;;6.57;;
72926;SDS011;61071;51.618;19.388;2023-05-08T04:59:31;7.65;;;5.70;;
72926;SDS011;61071;51.618;19.388;2023-05-08T05:01:57;11.00;;;5.53;;
72926;SDS011;61071;51.618;19.388;2023-05-08T05:04:22;8.80;;;6.10;;
72926;SDS011;61071;51.618;19.388;2023-05-08T05:06:48;7.30;;;5.60;;
72926;SDS011;61071;51.618;19.388;2023-05-08T05:09:14;9.85;;;5.78;;
72926;SDS011;61071;51.618;19.388;2023-05-08T05:11:40;8.77;;;5.30;;
72926;SDS011;61071;51.618;19.388;2023-05-08T05:14:06;8.93;;;5.32;;
72926;SDS011;61071;51.618;19.388;2023-05-08T05:16:32;8.40;;;4.95;;
72926;SDS011;61071;51.618;19.388;2023-05-08T05:18:58;6.95;;;4.40;;
72926;SDS011;61071;51.618;19.388;2023-05-08T05:21:24;6.47;;;4.50;;
72926;SDS011;61071;51.618;19.388;2023-05-08T05:23:52;7.25;;;5.15;;
72926;SDS011;61071;51.618;19.388;2023-05-08T05:26:17;7.60;;;4.80;;
72926;SDS011;61071;51.618;19.388;2023-05-08T05:28:44;6.53;;;4.35;;
72926;SDS011;61071;51.618;19.388;2023-05-08T05:31:09;6.50;;;4.43;;
72926;SDS011;61071;51.618;19.388;2023-05-08T05:33:35;5.25;;;3.97;;
72926;SDS011;61071;51.618;19.388;2023-05-08T05:36:01;6.18;;;4.55;;
72926;SDS011;61071;51.618;19.388;2023-05-08T05:38:27;5.03;;;3.53;;
72926;SDS011;61071;51.618;19.388;2023-05-08T05:40:53;5.15;;;3.65;;
72926;SDS011;61071;51.618;19.388;2023-05-08T05:43:19;6.07;;;3.58;;
72926;SDS011;61071;51.618;19.388;2023-05-08T05:45:45;5.28;;;3.35;;
72926;SDS011;61071;51.618;19.388;2023-05-08T05:48:10;5.00;;;3.10;;
72926;SDS011;61071;51.618;19.388;2023-05-08T05:50:36;4.25;;;3.20;;
72926;SDS011;61071;51.618;19.388;2023-05-08T05:53:02;5.07;;;2.78;;
72926;SDS011;61071;51.618;19.388;2023-05-08T05:55:28;5.15;;;3.03;;
72926;SDS011;61071;51.618;19.388;2023-05-08T05:57:54;4.65;;;3.38;;
72926;SDS011;61071;51.618;19.388;2023-05-08T06:00:20;5.85;;;3.22;;
72926;SDS011;61071;51.618;19.388;2023-05-08T06:02:46;5.13;;;3.92;;
72926;SDS011;61071;51.618;19.388;2023-05-08T06:05:12;5.40;;;3.65;;
72926;SDS011;61071;51.618;19.388;2023-05-08T06:07:39;4.65;;;3.30;;
72926;SDS011;61071;51.618;19.388;2023-05-08T06:10:05;5.25;;;3.80;;
72926;SDS011;61071;51.618;19.388;2023-05-08T06:12:31;5.68;;;3.50;;
72926;SDS011;61071;51.618;19.388;2023-05-08T06:14:57;6.38;;;3.40;;
72926;SDS011;61071;51.618;19.388;2023-05-08T06:17:23;5.65;;;4.10;;
72926;SDS011;61071;51.618;19.388;2023-05-08T06:19:49;6.05;;;4.30;;
72926;SDS011;61071;51.618;19.388;2023-05-08T06:22:18;5.10;;;4.00;;
72926;SDS011;61071;51.618;19.388;2023-05-08T06:24:47;5.20;;;3.97;;
72926;SDS011;61071;51.618;19.388;2023-05-08T06:27:17;4.40;;;3.95;;
72926;SDS011;61071;51.618;19.388;2023-05-08T06:29:45;6.38;;;3.88;;
72926;SDS011;61071;51.618;19.388;2023-05-08T06:32:17;5.65;;;3.85;;
72926;SDS011;61071;51.618;19.388;2023-05-08T06:34:44;6.55;;;4.43;;
72926;SDS011;61071;51.618;19.388;2023-05-08T06:37:10;7.82;;;4.05;;
72926;SDS011;61071;51.618;19.388;2023-05-08T06:39:36;6.25;;;4.68;;
72926;SDS011;61071;51.618;19.388;2023-05-08T06:42:02;7.72;;;4.57;;
72926;SDS011;61071;51.618;19.388;2023-05-08T06:44:30;5.78;;;4.35;;
72926;SDS011;61071;51.618;19.388;2023-05-08T06:46:59;6.18;;;4.30;;
72926;SDS011;61071;51.618;19.388;2023-05-08T06:49:25;6.40;;;4.22;;
72926;SDS011;61071;51.618;19.388;2023-05-08T06:51:51;8.00;;;4.90;;
72926;SDS011;61071;51.618;19.388;2023-05-08T06:54:17;7.25;;;4.97;;
72926;SDS011;61071;51.618;19.388;2023-05-08T06:56:43;5.18;;;4.53;;
72926;SDS011;61071;51.618;19.388;2023-05-08T06:59:10;5.75;;;4.38;;
72926;SDS011;61071;51.618;19.388;2023-05-08T07:01:36;7.68;;;4.85;;
72926;SDS011;61071;51.618;19.388;2023-05-08T07:04:02;5.20;;;3.88;;
72926;SDS011;61071;51.618;19.388;2023-05-08T07:06:29;5.93;;;4.38;;
72926;SDS011;61071;51.618;19.388;2023-05-08T07:08:55;4.88;;;3.80;;
72926;SDS011;61071;51.618;19.388;2023-05-08T07:11:21;5.13;;;3.80;;
72926;SDS011;61071;51.618;19.388;2023-05-08T07:13:47;5.15;;;4.10;;
72926;SDS011;61071;51.618;19.388;2023-05-08T07:16:14;5.85;;;4.07;;
72926;SDS011;61071;51.618;19.388;2023-05-08T07:18:40;4.97;;;4.00;;
72926;SDS011;61071;51.618;19.388;2023-05-08T07:21:06;5.80;;;4.03;;
72926;SDS011;61071;51.618;19.388;2023-05-08T07:23:32;9.45;;;3.40;;
72926;SDS011;61071;51.618;19.388;2023-05-08T07:25:58;4.78;;;3.67;;
72926;SDS011;61071;51.618;19.388;2023-05-08T07:28:24;8.55;;;3.88;;
72926;SDS011;61071;51.618;19.388;2023-05-08T07:30:50;4.72;;;3.20;;
72926;SDS011;61071;51.618;19.388;2023-05-08T07:33:16;4.40;;;3.00;;
72926;SDS011;61071;51.618;19.388;2023-05-08T07:35:42;5.95;;;3.20;;
72926;SDS011;61071;51.618;19.388;2023-05-08T07:38:09;6.10;;;3.33;;
72926;SDS011;61071;51.618;19.388;2023-05-08T07:40:34;4.78;;;3.40;;
72926;SDS011;61071;51.618;19.388;2023-05-08T07:43:00;4.47;;;3.08;;
72926;SDS011;61071;51.618;19.388;2023-05-08T07:45:26;4.55;;;3.13;;
72926;SDS011;61071;51.618;19.388;2023-05-08T07:47:56;4.03;;;2.97;;
72926;SDS011;61071;51.618;19.388;2023-05-08T07:50:24;5.13;;;3.40;;
72926;SDS011;61071;51.618;19.388;2023-05-08T07:52:50;3.55;;;2.80;;
72926;SDS011;61071;51.618;19.388;2023-05-08T07:55:17;3.17;;;2.58;;
72926;SDS011;61071;51.618;19.388;2023-05-08T07:57:44;5.53;;;3.10;;
72926;SDS011;61071;51.618;19.388;2023-05-08T08:00:11;4.57;;;2.60;;
72926;SDS011;61071;51.618;19.388;2023-05-08T08:02:39;3.38;;;2.47;;
72926;SDS011;61071;51.618;19.388;2023-05-08T08:05:05;6.07;;;2.70;;
72926;SDS011;61071;51.618;19.388;2023-05-08T08:07:32;4.25;;;2.83;;
72926;SDS011;61071;51.618;19.388;2023-05-08T08:09:58;5.25;;;2.58;;
72926;SDS011;61071;51.618;19.388;2023-05-08T08:12:25;4.10;;;2.88;;
72926;SDS011;61071;51.618;19.388;2023-05-08T08:14:51;3.33;;;2.60;;
72926;SDS011;61071;51.618;19.388;2023-05-08T08:17:17;3.58;;;3.00;;
72926;SDS011;61071;51.618;19.388;2023-05-08T08:19:42;3.80;;;2.50;;
72926;SDS011;61071;51.618;19.388;2023-05-08T08:22:08;5.38;;;2.67;;
72926;SDS011;61071;51.618;19.388;2023-05-08T08:24:34;6.80;;;2.83;;
72926;SDS011;61071;51.618;19.388;2023-05-08T08:27:01;4.97;;;2.53;;
72926;SDS011;61071;51.618;19.388;2023-05-08T08:29:28;4.68;;;3.00;;
72926;SDS011;61071;51.618;19.388;2023-05-08T08:31:54;4.38;;;2.85;;
72926;SDS011;61071;51.618;19.388;2023-05-08T08:34:20;4.43;;;2.42;;
72926;SDS011;61071;51.618;19.388;2023-05-08T08:36:47;8.60;;;2.20;;
72926;SDS011;61071;51.618;19.388;2023-05-08T08:39:13;4.78;;;2.85;;
72926;SDS011;61071;51.618;19.388;2023-05-08T08:41:39;4.20;;;2.47;;
72926;SDS011;61071;51.618;19.388;2023-05-08T08:44:05;3.45;;;2.70;;
72926;SDS011;61071;51.618;19.388;2023-05-08T08:46:31;3.67;;;2.85;;
72926;SDS011;61071;51.618;19.388;2023-05-08T08:48:59;5.53;;;2.85;;
72926;SDS011;61071;51.618;19.388;2023-05-08T08:51:34;6.38;;;2.60;;
72926;SDS011;61071;51.618;19.388;2023-05-08T08:54:08;3.30;;;2.50;;
72926;SDS011;61071;51.618;19.388;2023-05-08T08:56:37;3.42;;;2.65;;
72926;SDS011;61071;51.618;19.388;2023-05-08T08:59:08;5.65;;;2.85;;
72926;SDS011;61071;51.618;19.388;2023-05-08T09:01:38;3.30;;;2.78;;
72926;SDS011;61071;51.618;19.388;2023-05-08T09:04:08;6.55;;;2.72;;
72926;SDS011;61071;51.618;19.388;2023-05-08T09:06:37;5.65;;;3.17;;
72926;SDS011;61071;51.618;19.388;2023-05-08T09:09:05;4.05;;;2.72;;
72926;SDS011;61071;51.618;19.388;2023-05-08T09:11:31;5.30;;;2.80;;
72926;SDS011;61071;51.618;19.388;2023-05-08T09:13:57;3.67;;;2.70;;
72926;SDS011;61071;51.618;19.388;2023-05-08T09:16:23;4.50;;;2.88;;
72926;SDS011;61071;51.618;19.388;2023-05-08T09:18:51;6.80;;;2.92;;
72926;SDS011;61071;51.618;19.388;2023-05-08T09:21:17;4.07;;;2.60;;
72926;SDS011;61071;51.618;19.388;2023-05-08T09:26:28;4.80;;;2.65;;
72926;SDS011;61071;51.618;19.388;2023-05-08T09:29:40;3.63;;;2.50;;
72926;SDS011;61071;51.618;19.388;2023-05-08T09:31:50;7.22;;;3.10;;
72926;SDS011;61071;51.618;19.388;2023-05-08T09:34:24;3.63;;;2.97;;
72926;SDS011;61071;51.618;19.388;2023-05-08T09:36:55;3.55;;;2.40;;
72926;SDS011;61071;51.618;19.388;2023-05-08T09:39:37;5.45;;;2.80;;
72926;SDS011;61071;51.618;19.388;2023-05-08T09:42:07;4.85;;;2.92;;
72926;SDS011;61071;51.618;19.388;2023-05-08T09:44:42;5.30;;;2.40;;
72926;SDS011;61071;51.618;19.388;2023-05-08T09:47:14;4.38;;;2.50;;
72926;SDS011;61071;51.618;19.388;2023-05-08T09:49:58;5.30;;;3.00;;
72926;SDS011;61071;51.618;19.388;2023-05-08T09:52:30;3.10;;;2.40;;
72926;SDS011;61071;51.618;19.388;2023-05-08T10:00:24;3.58;;;2.42;;
72926;SDS011;61071;51.618;19.388;2023-05-08T10:02:59;3.58;;;2.50;;
72926;SDS011;61071;51.618;19.388;2023-05-08T10:05:32;5.78;;;2.38;;
72926;SDS011;61071;51.618;19.388;2023-05-08T10:10:53;7.40;;;2.35;;
72926;SDS011;61071;51.618;19.388;2023-05-08T10:13:42;3.13;;;2.20;;
72926;SDS011;61071;51.618;19.388;2023-05-08T10:16:13;3.75;;;2.40;;
72926;SDS011;61071;51.618;19.388;2023-05-08T10:18:46;5.55;;;2.20;;
72926;SDS011;61071;51.618;19.388;2023-05-08T10:21:15;2.95;;;2.47;;
72926;SDS011;61071;51.618;19.388;2023-05-08T10:23:42;4.07;;;2.35;;
72926;SDS011;61071;51.618;19.388;2023-05-08T10:26:15;2.90;;;2.03;;
72926;SDS011;61071;51.618;19.388;2023-05-08T10:28:55;2.63;;;1.90;;
72926;SDS011;61071;51.618;19.388;2023-05-08T10:31:29;3.88;;;2.28;;
72926;SDS011;61071;51.618;19.388;2023-05-08T10:34:03;3.47;;;2.13;;
72926;SDS011;61071;51.618;19.388;2023-05-08T10:36:30;5.30;;;1.80;;
72926;SDS011;61071;51.618;19.388;2023-05-08T10:38:57;3.85;;;2.00;;
72926;SDS011;61071;51.618;19.388;2023-05-08T10:41:23;3.38;;;1.90;;
72926;SDS011;61071;51.618;19.388;2023-05-08T10:43:50;3.70;;;2.33;;
72926;SDS011;61071;51.618;19.388;2023-05-08T10:52:38;3.08;;;2.22;;
72926;SDS011;61071;51.618;19.388;2023-05-08T11:03:44;3.80;;;1.83;;
72926;SDS011;61071;51.618;19.388;2023-05-08T11:06:14;2.53;;;1.90;;
72926;SDS011;61071;51.618;19.388;2023-05-08T11:08:45;3.33;;;1.70;;
72926;SDS011;61071;51.618;19.388;2023-05-08T11:11:23;3.38;;;2.03;;
72926;SDS011;61071;51.618;19.388;2023-05-08T11:13:54;2.70;;;2.00;;
72926;SDS011;61071;51.618;19.388;2023-05-08T11:17:08;2.25;;;1.77;;
72926;SDS011;61071;51.618;19.388;2023-05-08T11:19:27;2.13;;;1.75;;
72926;SDS011;61071;51.618;19.388;2023-05-08T11:35:40;5.95;;;1.80;;
72926;SDS011;61071;51.618;19.388;2023-05-08T11:38:25;5.78;;;1.80;;
72926;SDS011;61071;51.618;19.388;2023-05-08T11:49:14;4.88;;;1.90;;
72926;SDS011;61071;51.618;19.388;2023-05-08T11:51:42;1.70;;;1.60;;
72926;SDS011;61071;51.618;19.388;2023-05-08T11:54:11;1.90;;;1.70;;
72926;SDS011;61071;51.618;19.388;2023-05-08T11:56:46;11.35;;;3.28;;
72926;SDS011;61071;51.618;19.388;2023-05-08T11:59:14;3.40;;;1.92;;
72926;SDS011;61071;51.618;19.388;2023-05-08T12:01:40;2.58;;;1.60;;
72926;SDS011;61071;51.618;19.388;2023-05-08T12:04:08;2.58;;;1.80;;
72926;SDS011;61071;51.618;19.388;2023-05-08T12:06:37;4.68;;;1.70;;
72926;SDS011;61071;51.618;19.388;2023-05-08T12:09:09;2.30;;;1.80;;
72926;SDS011;61071;51.618;19.388;2023-05-08T12:11:40;4.15;;;2.15;;
72926;SDS011;61071;51.618;19.388;2023-05-08T12:14:09;3.08;;;2.13;;
72926;SDS011;61071;51.618;19.388;2023-05-08T12:16:36;3.17;;;1.95;;
72926;SDS011;61071;51.618;19.388;2023-05-08T12:19:08;2.65;;;1.88;;
72926;SDS011;61071;51.618;19.388;2023-05-08T12:21:35;2.42;;;1.60;;
72926;SDS011;61071;51.618;19.388;2023-05-08T12:24:05;1.98;;;1.77;;
72926;SDS011;61071;51.618;19.388;2023-05-08T12:26:37;4.55;;;1.50;;
72926;SDS011;61071;51.618;19.388;2023-05-08T12:29:06;2.70;;;1.90;;
72926;SDS011;61071;51.618;19.388;2023-05-08T12:31:35;2.38;;;1.52;;
72926;SDS011;61071;51.618;19.388;2023-05-08T12:34:05;5.32;;;1.95;;
72926;SDS011;61071;51.618;19.388;2023-05-08T12:36:33;2.72;;;1.60;;
72926;SDS011;61071;51.618;19.388;2023-05-08T12:39:12;3.40;;;1.75;;
72926;SDS011;61071;51.618;19.388;2023-05-08T12:41:49;2.60;;;1.70;;
72926;SDS011;61071;51.618;19.388;2023-05-08T12:44:23;2.33;;;1.77;;
72926;SDS011;61071;51.618;19.388;2023-05-08T12:46:50;2.78;;;1.90;;
72926;SDS011;61071;51.618;19.388;2023-05-08T12:49:26;3.63;;;1.60;;
72926;SDS011;61071;51.618;19.388;2023-05-08T12:52:01;2.15;;;1.73;;
72926;SDS011;61071;51.618;19.388;2023-05-08T12:54:34;8.02;;;2.05;;
72926;SDS011;61071;51.618;19.388;2023-05-08T12:57:12;2.10;;;1.60;;
72926;SDS011;61071;51.618;19.388;2023-05-08T12:59:40;5.80;;;2.17;;
72926;SDS011;61071;51.618;19.388;2023-05-08T13:02:11;3.78;;;1.80;;
72926;SDS011;61071;51.618;19.388;2023-05-08T13:04:47;2.47;;;1.60;;
72926;SDS011;61071;51.618;19.388;2023-05-08T13:07:19;3.30;;;2.13;;
72926;SDS011;61071;51.618;19.388;2023-05-08T13:12:29;2.90;;;1.77;;
72926;SDS011;61071;51.618;19.388;2023-05-08T13:14:56;5.35;;;1.98;;
72926;SDS011;61071;51.618;19.388;2023-05-08T13:17:21;3.95;;;1.90;;
72926;SDS011;61071;51.618;19.388;2023-05-08T13:19:47;5.07;;;2.25;;
72926;SDS011;61071;51.618;19.388;2023-05-08T13:22:13;3.05;;;1.90;;
72926;SDS011;61071;51.618;19.388;2023-05-08T13:24:38;6.68;;;1.92;;
72926;SDS011;61071;51.618;19.388;2023-05-08T13:27:04;3.65;;;2.30;;
72926;SDS011;61071;51.618;19.388;2023-05-08T13:29:30;4.38;;;1.63;;
72926;SDS011;61071;51.618;19.388;2023-05-08T13:31:55;2.88;;;2.00;;
72926;SDS011;61071;51.618;19.388;2023-05-08T13:34:21;2.08;;;1.80;;
72926;SDS011;61071;51.618;19.388;2023-05-08T13:36:48;2.83;;;1.90;;
72926;SDS011;61071;51.618;19.388;2023-05-08T13:39:14;5.20;;;1.92;;
72926;SDS011;61071;51.618;19.388;2023-05-08T13:41:39;5.22;;;2.10;;
72926;SDS011;61071;51.618;19.388;2023-05-08T13:44:05;2.00;;;1.70;;
72926;SDS011;61071;51.618;19.388;2023-05-08T13:46:30;2.65;;;1.90;;
72926;SDS011;61071;51.618;19.388;2023-05-08T13:48:56;3.05;;;1.80;;
72926;SDS011;61071;51.618;19.388;2023-05-08T13:51:22;2.75;;;1.77;;
72926;SDS011;61071;51.618;19.388;2023-05-08T13:53:47;2.97;;;2.13;;
72926;SDS011;61071;51.618;19.388;2023-05-08T13:56:13;4.15;;;1.70;;
72926;SDS011;61071;51.618;19.388;2023-05-08T13:58:39;6.10;;;2.03;;
72926;SDS011;61071;51.618;19.388;2023-05-08T14:01:05;3.70;;;2.03;;
72926;SDS011;61071;51.618;19.388;2023-05-08T14:03:30;4.35;;;2.47;;
72926;SDS011;61071;51.618;19.388;2023-05-08T14:05:56;2.53;;;1.83;;
72926;SDS011;61071;51.618;19.388;2023-05-08T14:08:22;2.72;;;2.05;;
72926;SDS011;61071;51.618;19.388;2023-05-08T14:10:48;5.75;;;2.08;;
72926;SDS011;61071;51.618;19.388;2023-05-08T14:13:14;6.25;;;1.92;;
72926;SDS011;61071;51.618;19.388;2023-05-08T14:15:39;4.82;;;2.15;;
72926;SDS011;61071;51.618;19.388;2023-05-08T14:18:06;4.57;;;1.50;;
72926;SDS011;61071;51.618;19.388;2023-05-08T14:20:31;1.73;;;1.63;;
72926;SDS011;61071;51.618;19.388;2023-05-08T14:22:57;4.65;;;1.60;;
72926;SDS011;61071;51.618;19.388;2023-05-08T14:25:23;2.45;;;1.83;;
72926;SDS011;61071;51.618;19.388;2023-05-08T14:27:48;3.03;;;1.90;;
72926;SDS011;61071;51.618;19.388;2023-05-08T14:30:14;3.90;;;1.85;;
72926;SDS011;61071;51.618;19.388;2023-05-08T14:32:40;2.30;;;1.98;;
72926;SDS011;61071;51.618;19.388;2023-05-08T14:35:05;3.47;;;2.08;;
72926;SDS011;61071;51.618;19.388;2023-05-08T14:37:34;2.90;;;1.70;;
72926;SDS011;61071;51.618;19.388;2023-05-08T14:40:00;4.32;;;1.83;;
72926;SDS011;61071;51.618;19.388;2023-05-08T14:42:25;2.15;;;1.95;;
72926;SDS011;61071;51.618;19.388;2023-05-08T14:44:51;4.10;;;2.20;;
72926;SDS011;61071;51.618;19.388;2023-05-08T14:47:17;3.38;;;1.70;;
72926;SDS011;61071;51.618;19.388;2023-05-08T14:49:43;3.28;;;1.52;;
72926;SDS011;61071;51.618;19.388;2023-05-08T14:52:08;2.45;;;1.70;;
72926;SDS011;61071;51.618;19.388;2023-05-08T14:54:34;3.97;;;2.00;;
72926;SDS011;61071;51.618;19.388;2023-05-08T14:57:00;5.00;;;2.10;;
72926;SDS011;61071;51.618;19.388;2023-05-08T14:59:25;2.72;;;1.83;;
72926;SDS011;61071;51.618;19.388;2023-05-08T15:01:51;2.17;;;1.65;;
72926;SDS011;61071;51.618;19.388;2023-05-08T15:04:17;1.88;;;1.70;;
72926;SDS011;61071;51.618;19.388;2023-05-08T15:06:43;3.33;;;1.70;;
72926;SDS011;61071;51.618;19.388;2023-05-08T15:09:08;3.17;;;1.85;;
72926;SDS011;61071;51.618;19.388;2023-05-08T15:11:35;2.38;;;1.90;;
72926;SDS011;61071;51.618;19.388;2023-05-08T15:14:02;2.97;;;2.00;;
72926;SDS011;61071;51.618;19.388;2023-05-08T15:16:29;2.47;;;1.80;;
72926;SDS011;61071;51.618;19.388;2023-05-08T15:18:55;2.72;;;1.90;;
72926;SDS011;61071;51.618;19.388;2023-05-08T15:21:20;4.00;;;1.95;;
72926;SDS011;61071;51.618;19.388;2023-05-08T15:23:50;4.28;;;2.03;;
72926;SDS011;61071;51.618;19.388;2023-05-08T15:26:20;3.60;;;1.70;;
72926;SDS011;61071;51.618;19.388;2023-05-08T15:28:46;3.47;;;2.08;;
72926;SDS011;61071;51.618;19.388;2023-05-08T15:31:12;3.85;;;2.03;;
72926;SDS011;61071;51.618;19.388;2023-05-08T15:33:38;4.32;;;1.95;;
72926;SDS011;61071;51.618;19.388;2023-05-08T15:36:09;2.92;;;1.65;;
72926;SDS011;61071;51.618;19.388;2023-05-08T15:38:39;2.25;;;1.75;;
72926;SDS011;61071;51.618;19.388;2023-05-08T15:41:05;2.72;;;1.70;;
72926;SDS011;61071;51.618;19.388;2023-05-08T15:43:31;4.43;;;1.90;;
72926;SDS011;61071;51.618;19.388;2023-05-08T15:45:57;2.38;;;1.90;;
72926;SDS011;61071;51.618;19.388;2023-05-08T15:48:23;2.03;;;1.83;;
72926;SDS011;61071;51.618;19.388;2023-05-08T15:50:48;2.97;;;1.70;;
72926;SDS011;61071;51.618;19.388;2023-05-08T15:53:14;5.70;;;2.13;;
72926;SDS011;61071;51.618;19.388;2023-05-08T15:55:40;4.10;;;1.83;;
72926;SDS011;61071;51.618;19.388;2023-05-08T15:58:06;3.55;;;1.67;;
72926;SDS011;61071;51.618;19.388;2023-05-08T16:00:32;2.25;;;1.80;;
72926;SDS011;61071;51.618;19.388;2023-05-08T16:02:57;3.15;;;1.88;;